createdAt,value
2023-09-01T00:01:55.538Z,98864.29
2023-09-01T00:04:50.405Z,98871.06
2023-09-01T00:07:38.983Z,98870.81
2023-09-01T00:10:27.578Z,98874.74
2023-09-01T00:13:16.183Z,98870.98
2023-09-01T00:16:05.129Z,98872.73
2023-09-01T00:18:53.781Z,98868.71
2023-09-01T00:21:42.309Z,98867.57
2023-09-01T00:24:33.198Z,98867.38
2023-09-01T00:27:21.702Z,98862.86
2023-09-01T00:30:10.728Z,98863.41
2023-09-01T00:32:59.360Z,98866.89
2023-09-01T00:35:50.608Z,98865.67
2023-09-01T00:38:46.809Z,98866.67
2023-09-01T00:41:36.163Z,98868.29
2023-09-01T00:44:24.691Z,98871.77
2023-09-01T00:47:15.156Z,98870.91
2023-09-01T00:50:09.014Z,98864.90
2023-09-01T00:52:58.153Z,98866.44
2023-09-01T00:55:49.087Z,98868.94
2023-09-01T00:58:37.679Z,98865.72
2023-09-01T01:01:26.246Z,98866.07
2023-09-01T01:04:15.693Z,98872.56
2023-09-01T01:07:19.284Z,98870.99
2023-09-01T01:10:15.435Z,98868.17
2023-09-01T01:13:08.879Z,98868.77
2023-09-01T01:15:59.597Z,98873.28
2023-09-01T01:18:50.484Z,98873.80
2023-09-01T01:21:45.422Z,98875.33
2023-09-01T01:24:36.056Z,98879.38
2023-09-01T01:27:24.633Z,98883.48
2023-09-01T01:30:16.408Z,98884.86
2023-09-01T01:33:05.578Z,98879.21
2023-09-01T01:36:07.497Z,98882.86
2023-09-01T01:39:14.099Z,98883.59
2023-09-01T01:42:16.936Z,98883.23
2023-09-01T01:45:07.589Z,98879.96
2023-09-01T01:47:56.370Z,98879.17
2023-09-01T01:50:45.088Z,98873.20
2023-09-01T01:53:38.062Z,98876.66
2023-09-01T01:56:27.059Z,98876.56
2023-09-01T01:59:15.630Z,98879.83
2023-09-01T02:02:07.461Z,98880.02
2023-09-01T02:04:56.095Z,98884.37
2023-09-01T02:07:44.766Z,98889.55
2023-09-01T02:10:33.665Z,98894.95
2023-09-01T02:13:22.392Z,98898.30
2023-09-01T02:16:11.005Z,98894.77
2023-09-01T02:18:59.633Z,98890.11
2023-09-01T02:21:48.204Z,98895.25
2023-09-01T02:24:36.820Z,98899.21
2023-09-01T02:27:26.319Z,98893.26
2023-09-01T02:30:15.238Z,98893.28
2023-09-01T02:33:04.329Z,98888.70
2023-09-01T02:36:29.740Z,98880.23
2023-09-01T02:39:18.475Z,98875.89
2023-09-01T02:42:07.062Z,98873.84
2023-09-01T02:44:55.704Z,98874.63
2023-09-01T02:47:44.777Z,98878.86
2023-09-01T02:50:33.582Z,98883.68
2023-09-01T02:53:22.178Z,98883.99
2023-09-01T02:56:10.860Z,98892.73
2023-09-01T02:58:59.447Z,98891.98
2023-09-01T03:01:48.054Z,98894.85
2023-09-01T03:04:38.435Z,98898.39
2023-09-01T03:07:28.855Z,98898.27
2023-09-01T03:10:17.507Z,98893.04
2023-09-01T03:13:06.065Z,98898.05
2023-09-01T03:15:55.996Z,98895.00
2023-09-01T03:18:44.683Z,98895.01
2023-09-01T03:21:33.440Z,98898.89
2023-09-01T03:24:22.016Z,98897.16
2023-09-01T03:27:10.781Z,98899.84
2023-09-01T03:29:59.434Z,98901.00
2023-09-01T03:32:50.852Z,98900.38
2023-09-01T03:35:39.457Z,98902.92
2023-09-01T03:38:28.046Z,98902.62
2023-09-01T03:41:16.588Z,98901.91
2023-09-01T03:44:05.476Z,98901.80
2023-09-01T03:46:54.097Z,98895.26
2023-09-01T03:49:42.868Z,98893.78
2023-09-01T03:52:31.475Z,98896.36
2023-09-01T03:55:19.984Z,98900.52
2023-09-01T03:58:08.539Z,98907.06
2023-09-01T04:00:57.062Z,98910.58
2023-09-01T04:03:46.642Z,98914.58
2023-09-01T04:06:36.186Z,98916.89
2023-09-01T04:09:25.201Z,98919.48
2023-09-01T04:12:13.725Z,98916.23
2023-09-01T04:15:02.558Z,98922.38
2023-09-01T04:17:51.140Z,98921.07
2023-09-01T04:20:39.789Z,98918.19
2023-09-01T04:23:28.528Z,98915.07
2023-09-01T04:26:17.899Z,98917.83
2023-09-01T04:29:07.591Z,98911.74
2023-09-01T04:31:56.292Z,98911.84
2023-09-01T04:34:44.991Z,98913.98
2023-09-01T04:37:33.765Z,98921.17
2023-09-01T04:40:23.145Z,98926.41
2023-09-01T04:43:11.721Z,98935.00
2023-09-01T04:46:00.635Z,98932.67
2023-09-01T04:48:51.020Z,98934.23
2023-09-01T04:51:39.799Z,98938.45
2023-09-01T04:54:28.479Z,98945.04
2023-09-01T04:57:17.166Z,98947.16
2023-09-01T05:00:17.801Z,98950.35
2023-09-01T05:03:06.837Z,98956.95
2023-09-01T05:05:56.998Z,98960.16
2023-09-01T05:08:45.832Z,98963.19
2023-09-01T05:11:34.536Z,98964.72
2023-09-01T05:14:23.078Z,98969.70
2023-09-01T05:17:11.696Z,98969.14
2023-09-01T05:20:00.757Z,98970.92
2023-09-01T05:22:49.429Z,98971.70
2023-09-01T05:25:38.088Z,98974.66
2023-09-01T05:28:27.150Z,98971.11
2023-09-01T05:31:15.745Z,98977.37
2023-09-01T05:34:08.157Z,98980.73
2023-09-01T05:36:58.888Z,98981.92
2023-09-01T05:39:47.655Z,98981.86
2023-09-01T05:42:36.270Z,98981.95
2023-09-01T05:45:24.957Z,98985.00
2023-09-01T05:48:14.754Z,98978.19
2023-09-01T05:51:04.324Z,98981.88
2023-09-01T05:53:52.907Z,98989.63
2023-09-01T05:56:41.440Z,98987.30
2023-09-01T05:59:29.989Z,98987.52
2023-09-01T06:02:18.691Z,98987.80
2023-09-01T06:05:07.645Z,98992.59
2023-09-01T06:07:56.255Z,98993.40
2023-09-01T06:10:44.802Z,98993.75
2023-09-01T06:13:33.491Z,98991.88
2023-09-01T06:16:22.067Z,98991.52
2023-09-01T06:19:10.680Z,98990.89
2023-09-01T06:21:59.274Z,98991.66
2023-09-01T06:24:47.933Z,98995.11
2023-09-01T06:27:38.535Z,98993.95
2023-09-01T06:30:27.228Z,98994.05
2023-09-01T06:33:15.804Z,98996.70
2023-09-01T06:36:05.431Z,98996.80
2023-09-01T06:38:53.920Z,99000.33
2023-09-01T06:41:42.517Z,99000.41
2023-09-01T06:44:32.515Z,99003.61
2023-09-01T06:47:21.088Z,99005.20
2023-09-01T06:50:10.032Z,99010.05
2023-09-01T06:52:58.581Z,99010.49
2023-09-01T06:55:48.279Z,99008.65
2023-09-01T06:58:36.947Z,99010.52
2023-09-01T07:01:25.576Z,99012.31
2023-09-01T07:04:14.256Z,99014.74
2023-09-01T07:07:02.907Z,99019.28
2023-09-01T07:09:52.049Z,99016.71
2023-09-01T07:12:40.587Z,99013.73
2023-09-01T07:15:29.458Z,99012.80
2023-09-01T07:18:19.675Z,99015.81
2023-09-01T07:21:08.780Z,99015.91
2023-09-01T07:23:57.277Z,99017.09
2023-09-01T07:26:46.068Z,99019.13
2023-09-01T07:29:35.019Z,99017.59
2023-09-01T07:32:23.679Z,99018.74
2023-09-01T07:35:12.384Z,99019.45
2023-09-01T07:38:01.064Z,99017.48
2023-09-01T07:40:49.732Z,99014.95
2023-09-01T07:43:38.265Z,99014.84
2023-09-01T07:46:28.726Z,99018.39
2023-09-01T07:49:17.275Z,99017.85
2023-09-01T07:52:05.945Z,99017.96
2023-09-01T07:54:54.805Z,99017.05
2023-09-01T07:57:43.369Z,99019.05
2023-09-01T08:00:32.565Z,99015.10
2023-09-01T08:03:21.239Z,99019.21
2023-09-01T08:06:09.963Z,99015.17
2023-09-01T08:08:59.030Z,99014.89
2023-09-01T08:11:47.672Z,99015.17
2023-09-01T08:14:36.312Z,99012.91
2023-09-01T08:17:25.041Z,99016.50
2023-09-01T08:20:14.685Z,99015.76
2023-09-01T08:23:03.791Z,99019.55
2023-09-01T08:25:52.419Z,99016.48
2023-09-01T08:28:41.032Z,99010.84
2023-09-01T08:31:29.663Z,99006.39
2023-09-01T08:34:19.606Z,99007.70
2023-09-01T08:37:08.230Z,99008.78
2023-09-01T08:39:56.822Z,99005.65
2023-09-01T08:42:47.982Z,99001.73
2023-09-01T08:45:37.558Z,99001.01
2023-09-01T08:48:26.447Z,99003.83
2023-09-01T08:51:16.201Z,99008.30
2023-09-01T08:54:08.035Z,99011.52
2023-09-01T08:56:56.820Z,99017.39
2023-09-01T08:59:45.307Z,99017.63
2023-09-01T09:02:34.053Z,99021.81
2023-09-01T09:05:24.324Z,99018.70
2023-09-01T09:08:13.751Z,99018.84
2023-09-01T09:11:12.340Z,99023.81
2023-09-01T09:14:09.757Z,99016.10
2023-09-01T09:16:59.271Z,99015.14
2023-09-01T09:19:52.790Z,99016.34
2023-09-01T09:22:51.345Z,99016.91
2023-09-01T09:25:40.167Z,99013.42
2023-09-01T09:28:28.753Z,99018.48
2023-09-01T09:31:17.870Z,99021.05
2023-09-01T09:34:14.754Z,99024.30
2023-09-01T09:37:03.442Z,99028.71
2023-09-01T09:39:52.011Z,99033.02
2023-09-01T09:42:42.325Z,99032.27
2023-09-01T09:45:38.403Z,99038.58
2023-09-01T09:48:27.155Z,99040.73
2023-09-01T09:51:19.354Z,99043.80
2023-09-01T09:54:11.181Z,99042.86
2023-09-01T09:57:03.346Z,99041.36
2023-09-01T10:00:10.299Z,99037.91
2023-09-01T10:03:05.180Z,99042.89
2023-09-01T10:05:55.754Z,99046.79
2023-09-01T10:08:45.941Z,99045.64
2023-09-01T10:11:34.709Z,99046.98
2023-09-01T10:14:24.602Z,99041.97
2023-09-01T10:17:15.688Z,99034.52
2023-09-01T10:20:08.348Z,99044.41
2023-09-01T10:22:57.423Z,99043.10
2023-09-01T10:26:26.629Z,99040.81
2023-09-01T10:29:32.386Z,99042.64
2023-09-01T10:32:21.099Z,99039.23
2023-09-01T10:35:11.760Z,99039.30
2023-09-01T10:38:36.388Z,99035.89
2023-09-01T10:41:48.632Z,99040.45
2023-09-01T10:44:45.838Z,99046.23
2023-09-01T10:47:36.370Z,99046.06
2023-09-01T10:50:27.333Z,99044.21
2023-09-01T10:53:38.237Z,99040.98
2023-09-01T10:56:28.664Z,99041.94
2023-09-01T10:59:29.072Z,99040.42
2023-09-01T11:02:18.722Z,99032.70
2023-09-01T11:05:07.331Z,99028.37
2023-09-01T11:08:17.096Z,99031.10
2023-09-01T11:11:11.076Z,99030.63
2023-09-01T11:14:02.980Z,99031.45
2023-09-01T11:16:51.634Z,99031.90
2023-09-01T11:19:49.394Z,99034.53
2023-09-01T11:22:39.283Z,99028.45
2023-09-01T11:25:28.654Z,99032.11
2023-09-01T11:28:17.809Z,99033.21
2023-09-01T11:31:07.198Z,99037.84
2023-09-01T11:33:55.867Z,99032.67
2023-09-01T11:36:48.567Z,99030.86
2023-09-01T11:39:37.293Z,99029.39
2023-09-01T11:42:25.976Z,99026.19
2023-09-01T11:45:14.570Z,99028.85
2023-09-01T11:48:05.822Z,99028.08
2023-09-01T11:50:55.748Z,99029.70
2023-09-01T11:53:45.197Z,99029.02
2023-09-01T11:56:33.785Z,99032.98
2023-09-01T11:59:22.398Z,99036.54
2023-09-01T12:02:11.353Z,99033.09
2023-09-01T12:05:02.133Z,99031.08
2023-09-01T12:07:54.104Z,99029.32
2023-09-01T12:10:42.745Z,99029.21
2023-09-01T12:13:32.416Z,99026.48
2023-09-01T12:16:23.464Z,99023.33
2023-09-01T12:19:12.032Z,99019.14
2023-09-01T12:22:00.611Z,99018.35
2023-09-01T12:24:56.714Z,99015.23
2023-09-01T12:27:45.378Z,99013.13
2023-09-01T12:30:33.876Z,99015.81
2023-09-01T12:33:22.781Z,99013.72
2023-09-01T12:36:12.458Z,99009.26
2023-09-01T12:39:01.042Z,99013.96
2023-09-01T12:41:49.593Z,99021.23
2023-09-01T12:44:38.406Z,99019.55
2023-09-01T12:47:26.948Z,99021.55
2023-09-01T12:50:15.588Z,99023.81
2023-09-01T12:53:04.322Z,99022.52
2023-09-01T12:55:52.921Z,99019.52
2023-09-01T12:58:41.954Z,99020.42
2023-09-01T13:01:30.574Z,99017.12
2023-09-01T13:04:19.596Z,99017.92
2023-09-01T13:07:08.680Z,99014.75
2023-09-01T13:09:57.436Z,99010.20
2023-09-01T13:12:46.092Z,99006.30
2023-09-01T13:15:34.795Z,99007.26
2023-09-01T13:18:23.688Z,99006.63
2023-09-01T13:21:14.935Z,99004.65
2023-09-01T13:24:03.870Z,99007.81
2023-09-01T13:26:53.341Z,99006.09
2023-09-01T13:29:41.914Z,99011.76
2023-09-01T13:32:30.555Z,99006.80
2023-09-01T13:35:19.134Z,99003.68
2023-09-01T13:38:07.694Z,98999.02
2023-09-01T13:40:57.100Z,98995.20
2023-09-01T13:43:45.822Z,98998.36
2023-09-01T13:46:35.154Z,99005.54
2023-09-01T13:49:25.862Z,99007.83
2023-09-01T13:52:14.651Z,99005.57
2023-09-01T13:55:03.380Z,99000.89
2023-09-01T13:57:51.958Z,98997.59
2023-09-01T14:00:40.493Z,98992.73
2023-09-01T14:03:32.064Z,98992.58
2023-09-01T14:06:20.682Z,98990.33
2023-09-01T14:09:09.762Z,98991.09
2023-09-01T14:11:58.487Z,98991.13
2023-09-01T14:14:47.020Z,98996.02
2023-09-01T14:17:35.606Z,98997.13
2023-09-01T14:20:25.096Z,98998.75
2023-09-01T14:23:13.859Z,98997.05
2023-09-01T14:26:02.594Z,99001.36
2023-09-01T14:28:51.146Z,98999.52
2023-09-01T14:31:39.711Z,99000.83
2023-09-01T14:34:28.794Z,99008.33
2023-09-01T14:37:17.620Z,99007.58
2023-09-01T14:40:06.671Z,99007.59
2023-09-01T14:42:55.242Z,99006.70
2023-09-01T14:45:43.760Z,99008.11
2023-09-01T14:48:32.554Z,99009.45
2023-09-01T14:51:21.138Z,99004.31
2023-09-01T14:54:09.793Z,99006.98
2023-09-01T14:56:58.408Z,99004.22
2023-09-01T14:59:47.000Z,99009.15
2023-09-01T15:02:35.594Z,99009.11
2023-09-01T15:05:24.283Z,99010.17
2023-09-01T15:08:12.903Z,99008.80
2023-09-01T15:11:04.272Z,99011.89
2023-09-01T15:13:53.739Z,99004.80
2023-09-01T15:16:45.247Z,98996.55
2023-09-01T15:19:34.094Z,98995.84
2023-09-01T15:22:22.645Z,98996.77
2023-09-01T15:25:11.304Z,98995.17
2023-09-01T15:27:59.895Z,98994.86
2023-09-01T15:30:48.402Z,98993.30
2023-09-01T15:33:37.015Z,98991.98
2023-09-01T15:36:28.115Z,98996.12
2023-09-01T15:39:16.776Z,98992.53
2023-09-01T15:42:05.485Z,98989.38
2023-09-01T15:44:53.990Z,98996.15
2023-09-01T15:47:42.715Z,98997.56
2023-09-01T15:50:43.460Z,99000.61
2023-09-01T15:53:34.728Z,98998.13
2023-09-01T15:56:23.280Z,98998.10
2023-09-01T15:59:11.875Z,99000.75
2023-09-01T16:02:00.552Z,98999.05
2023-09-01T16:04:49.296Z,99002.24
2023-09-01T16:07:38.251Z,99003.00
2023-09-01T16:10:27.335Z,99003.34
2023-09-01T16:13:16.091Z,99002.23
2023-09-01T16:16:05.220Z,99003.26
2023-09-01T16:18:53.798Z,99002.28
2023-09-01T16:21:42.871Z,99006.02
2023-09-01T16:24:33.431Z,99008.50
2023-09-01T16:27:22.014Z,98999.31
2023-09-01T16:30:11.766Z,98993.86
2023-09-01T16:33:01.411Z,98994.88
2023-09-01T16:35:58.190Z,99000.61
2023-09-01T16:38:47.187Z,99003.21
2023-09-01T16:41:36.006Z,99000.98
2023-09-01T16:44:26.060Z,99001.34
2023-09-01T16:47:14.919Z,98997.75
2023-09-01T16:50:06.670Z,98990.02
2023-09-01T16:52:57.825Z,98994.45
2023-09-01T16:55:47.395Z,98994.52
2023-09-01T16:58:35.913Z,98998.89
2023-09-01T17:01:24.508Z,98994.86
2023-09-01T17:04:13.036Z,98998.75
2023-09-01T17:07:01.823Z,98996.19
2023-09-01T17:10:07.905Z,98991.86
2023-09-01T17:12:56.459Z,98992.54
2023-09-01T17:15:45.090Z,99002.09
2023-09-01T17:18:33.670Z,99006.89
2023-09-01T17:21:22.412Z,99015.70
2023-09-01T17:24:11.106Z,99020.21
2023-09-01T17:26:59.669Z,99021.92
2023-09-01T17:29:48.220Z,99021.59
2023-09-01T17:32:37.161Z,99016.08
2023-09-01T17:35:25.658Z,99012.10
2023-09-01T17:38:15.613Z,99009.75
2023-09-01T17:41:05.145Z,99007.96
2023-09-01T17:43:54.800Z,99007.56
2023-09-01T17:46:43.353Z,99018.22
2023-09-01T17:49:32.099Z,99025.68
2023-09-01T17:52:20.627Z,99027.16
2023-09-01T17:55:09.406Z,99029.39
2023-09-01T17:57:58.446Z,99030.16
2023-09-01T18:00:49.590Z,99035.37
2023-09-01T18:03:41.291Z,99044.27
2023-09-01T18:06:31.714Z,99039.98
2023-09-01T18:09:21.087Z,99041.99
2023-09-01T18:12:09.663Z,99041.39
2023-09-01T18:14:58.359Z,99043.39
2023-09-01T18:17:47.047Z,99046.38
2023-09-01T18:20:35.587Z,99043.11
2023-09-01T18:23:25.453Z,99038.21
2023-09-01T18:26:15.122Z,99043.35
2023-09-01T18:29:03.880Z,99047.08
2023-09-01T18:31:56.403Z,99042.36
2023-09-01T18:34:45.205Z,99047.67
2023-09-01T18:37:37.056Z,99044.78
2023-09-01T18:40:25.822Z,99042.81
2023-09-01T18:43:15.006Z,99050.38
2023-09-01T18:46:03.877Z,99045.04
2023-09-01T18:48:54.822Z,99048.73
2023-09-01T18:51:44.151Z,99051.31
2023-09-01T18:54:32.813Z,99052.70
2023-09-01T18:57:21.483Z,99044.11
2023-09-01T19:00:15.054Z,99041.66
2023-09-01T19:03:04.394Z,99040.40
2023-09-01T19:05:56.796Z,99045.85
2023-09-01T19:08:45.502Z,99048.58
2023-09-01T19:11:34.516Z,99049.36
2023-09-01T19:14:23.141Z,99056.66
2023-09-01T19:17:12.518Z,99057.15
2023-09-01T19:20:02.052Z,99062.70
2023-09-01T19:22:52.178Z,99062.78
2023-09-01T19:25:44.942Z,99067.20
2023-09-01T19:28:38.848Z,99064.08
2023-09-01T19:31:28.732Z,99069.09
2023-09-01T19:34:17.512Z,99072.47
2023-09-01T19:37:06.107Z,99075.14
2023-09-01T19:39:55.061Z,99077.73
2023-09-01T19:42:44.576Z,99080.70
2023-09-01T19:45:37.606Z,99077.27
2023-09-01T19:48:30.488Z,99078.98
2023-09-01T19:51:19.027Z,99078.52
2023-09-01T19:54:07.899Z,99075.20
2023-09-01T19:56:57.062Z,99078.82
2023-09-01T19:59:45.728Z,99073.12
2023-09-01T20:02:34.472Z,99074.08
2023-09-01T20:05:24.464Z,99077.03
2023-09-01T20:08:13.057Z,99079.46
2023-09-01T20:11:01.652Z,99087.26
2023-09-01T20:13:51.428Z,99081.98
2023-09-01T20:16:42.347Z,99082.64
2023-09-01T20:19:30.961Z,99082.59
2023-09-01T20:22:20.057Z,99084.96
2023-09-01T20:25:08.810Z,99087.52
2023-09-01T20:27:58.056Z,99090.00
2023-09-01T20:30:46.747Z,99091.05
2023-09-01T20:33:35.392Z,99091.83
2023-09-01T20:36:24.661Z,99092.90
2023-09-01T20:39:15.256Z,99097.50
2023-09-01T20:42:05.770Z,99095.56
2023-09-01T20:44:54.357Z,99096.11
2023-09-01T20:47:43.009Z,99097.45
2023-09-01T20:50:31.600Z,99092.20
2023-09-01T20:53:20.121Z,99092.64
2023-09-01T20:56:08.846Z,99094.58
2023-09-01T20:58:58.002Z,99098.16
2023-09-01T21:01:46.659Z,99098.66
2023-09-01T21:04:35.212Z,99099.89
2023-09-01T21:07:23.782Z,99099.70
2023-09-01T21:10:12.535Z,99102.42
2023-09-01T21:13:01.078Z,99099.00
2023-09-01T21:15:51.590Z,99097.37
2023-09-01T21:18:40.374Z,99098.44
2023-09-01T21:21:28.985Z,99097.73
2023-09-01T21:24:17.682Z,99104.81
2023-09-01T21:27:07.814Z,99106.06
2023-09-01T21:30:13.659Z,99111.25
2023-09-01T21:33:07.268Z,99107.21
2023-09-01T21:35:55.950Z,99110.79
2023-09-01T21:38:44.488Z,99116.66
2023-09-01T21:41:33.614Z,99119.85
2023-09-01T21:44:22.248Z,99116.83
2023-09-01T21:47:10.822Z,99111.38
2023-09-01T21:49:59.413Z,99109.70
2023-09-01T21:52:48.025Z,99107.98
2023-09-01T21:55:36.580Z,99110.25
2023-09-01T21:58:25.185Z,99112.67
2023-09-01T22:01:13.731Z,99115.40
2023-09-01T22:04:02.717Z,99116.36
2023-09-01T22:06:51.252Z,99116.31
2023-09-01T22:09:39.912Z,99121.42
2023-09-01T22:12:29.936Z,99121.83
2023-09-01T22:15:18.512Z,99120.09
2023-09-01T22:18:07.114Z,99119.19
2023-09-01T22:20:55.667Z,99119.29
2023-09-01T22:23:44.228Z,99121.17
2023-09-01T22:26:37.010Z,99120.52
2023-09-01T22:29:25.890Z,99122.23
2023-09-01T22:32:14.418Z,99118.36
2023-09-01T22:35:04.795Z,99121.17
2023-09-01T22:38:03.355Z,99116.91
2023-09-01T22:41:01.161Z,99114.83
2023-09-01T22:43:49.719Z,99117.81
2023-09-01T22:49:26.823Z,99116.20
2023-09-01T22:52:16.380Z,99111.34
2023-09-01T22:55:05.350Z,99114.33
2023-09-01T22:57:57.212Z,99121.60
2023-09-01T23:00:46.057Z,99118.30
2023-09-01T23:03:34.931Z,99123.52
2023-09-01T23:06:23.500Z,99121.84
2023-09-01T23:09:12.115Z,99122.38
2023-09-01T23:12:00.721Z,99118.66
2023-09-01T23:14:49.242Z,99120.69
2023-09-01T23:17:38.186Z,99117.56
2023-09-01T23:20:26.799Z,99117.76
2023-09-01T23:23:15.569Z,99116.64
2023-09-01T23:26:04.341Z,99118.91
2023-09-01T23:28:53.464Z,99117.06
2023-09-01T23:31:44.150Z,99113.86
2023-09-01T23:34:34.197Z,99112.23
2023-09-01T23:37:22.966Z,99112.11
2023-09-01T23:40:12.103Z,99110.59
2023-09-01T23:43:00.887Z,99109.78
2023-09-01T23:45:49.419Z,99105.37
2023-09-01T23:48:38.222Z,99107.33
2023-09-01T23:51:26.752Z,99110.37
2023-09-01T23:54:15.477Z,99109.67
2023-09-01T23:57:04.166Z,99106.77
2023-09-01T23:59:52.715Z,99111.33
